sensor_id;sensor_type;location;lat;lon;timestamp;P1;durP1;ratioP1;P2;durP2;ratioP2
9914;SDS011;4996;48.746;9.174;2023-04-21T00:01:47;16.67;;;11.00;;
9914;SDS011;4996;48.746;9.174;2023-04-21T00:04:12;13.20;;;9.23;;
9914;SDS011;4996;48.746;9.174;2023-04-21T00:06:39;14.83;;;10.00;;
9914;SDS011;4996;48.746;9.174;2023-04-21T00:09:06;17.07;;;10.70;;
9914;SDS011;4996;48.746;9.174;2023-04-21T00:11:32;18.50;;;11.10;;
9914;SDS011;4996;48.746;9.174;2023-04-21T00:13:57;19.27;;;12.30;;
9914;SDS011;4996;48.746;9.174;2023-04-21T00:16:23;17.10;;;11.13;;
9914;SDS011;4996;48.746;9.174;2023-04-21T00:18:48;15.30;;;11.27;;
9914;SDS011;4996;48.746;9.174;2023-04-21T00:21:14;19.70;;;10.33;;
9914;SDS011;4996;48.746;9.174;2023-04-21T00:23:40;15.60;;;10.40;;
9914;SDS011;4996;48.746;9.174;2023-04-21T00:26:06;18.83;;;10.43;;
9914;SDS011;4996;48.746;9.174;2023-04-21T00:28:31;16.20;;;10.27;;
9914;SDS011;4996;48.746;9.174;2023-04-21T00:30:57;16.90;;;10.90;;
9914;SDS011;4996;48.746;9.174;2023-04-21T00:33:22;17.87;;;11.57;;
9914;SDS011;4996;48.746;9.174;2023-04-21T00:35:48;14.70;;;9.50;;
9914;SDS011;4996;48.746;9.174;2023-04-21T00:38:13;16.23;;;10.90;;
9914;SDS011;4996;48.746;9.174;2023-04-21T00:40:39;16.60;;;11.53;;
9914;SDS011;4996;48.746;9.174;2023-04-21T00:43:05;18.73;;;11.60;;
9914;SDS011;4996;48.746;9.174;2023-04-21T00:45:31;18.73;;;9.97;;
9914;SDS011;4996;48.746;9.174;2023-04-21T00:47:57;15.53;;;10.50;;
9914;SDS011;4996;48.746;9.174;2023-04-21T00:50:23;16.00;;;11.47;;
9914;SDS011;4996;48.746;9.174;2023-04-21T00:52:48;17.47;;;11.83;;
9914;SDS011;4996;48.746;9.174;2023-04-21T00:55:14;17.77;;;11.53;;
9914;SDS011;4996;48.746;9.174;2023-04-21T00:57:40;19.37;;;11.80;;
9914;SDS011;4996;48.746;9.174;2023-04-21T01:00:06;19.20;;;11.87;;
9914;SDS011;4996;48.746;9.174;2023-04-21T01:02:35;16.50;;;11.13;;
9914;SDS011;4996;48.746;9.174;2023-04-21T01:05:04;16.60;;;11.20;;
9914;SDS011;4996;48.746;9.174;2023-04-21T01:07:33;17.50;;;11.60;;
9914;SDS011;4996;48.746;9.174;2023-04-21T01:09:59;17.77;;;11.73;;
9914;SDS011;4996;48.746;9.174;2023-04-21T01:12:25;19.90;;;13.17;;
9914;SDS011;4996;48.746;9.174;2023-04-21T01:14:50;17.90;;;12.13;;
9914;SDS011;4996;48.746;9.174;2023-04-21T01:17:16;23.60;;;12.73;;
9914;SDS011;4996;48.746;9.174;2023-04-21T01:19:43;22.07;;;13.60;;
9914;SDS011;4996;48.746;9.174;2023-04-21T01:22:10;17.63;;;12.60;;
9914;SDS011;4996;48.746;9.174;2023-04-21T01:24:40;22.00;;;14.33;;
9914;SDS011;4996;48.746;9.174;2023-04-21T01:27:07;24.67;;;15.10;;
9914;SDS011;4996;48.746;9.174;2023-04-21T01:29:51;19.53;;;13.83;;
9914;SDS011;4996;48.746;9.174;2023-04-21T01:32:19;21.43;;;13.40;;
9914;SDS011;4996;48.746;9.174;2023-04-21T01:34:50;22.87;;;13.87;;
9914;SDS011;4996;48.746;9.174;2023-04-21T01:37:17;26.00;;;15.90;;
9914;SDS011;4996;48.746;9.174;2023-04-21T01:39:46;26.33;;;15.17;;
9914;SDS011;4996;48.746;9.174;2023-04-21T01:42:18;22.73;;;14.53;;
9914;SDS011;4996;48.746;9.174;2023-04-21T01:44:45;26.30;;;15.47;;
9914;SDS011;4996;48.746;9.174;2023-04-21T01:47:11;24.37;;;14.13;;
9914;SDS011;4996;48.746;9.174;2023-04-21T01:49:36;21.33;;;14.30;;
9914;SDS011;4996;48.746;9.174;2023-04-21T01:52:02;22.77;;;14.93;;
9914;SDS011;4996;48.746;9.174;2023-04-21T01:54:28;19.67;;;12.97;;
9914;SDS011;4996;48.746;9.174;2023-04-21T01:56:54;18.90;;;12.40;;
9914;SDS011;4996;48.746;9.174;2023-04-21T01:59:20;22.80;;;15.33;;
9914;SDS011;4996;48.746;9.174;2023-04-21T02:01:45;24.70;;;15.93;;
9914;SDS011;4996;48.746;9.174;2023-04-21T02:04:11;26.70;;;14.47;;
9914;SDS011;4996;48.746;9.174;2023-04-21T02:06:36;23.30;;;14.50;;
9914;SDS011;4996;48.746;9.174;2023-04-21T02:09:02;24.60;;;15.50;;
9914;SDS011;4996;48.746;9.174;2023-04-21T02:11:27;22.37;;;13.97;;
9914;SDS011;4996;48.746;9.174;2023-04-21T02:13:54;21.43;;;13.80;;
9914;SDS011;4996;48.746;9.174;2023-04-21T02:16:20;22.27;;;12.87;;
9914;SDS011;4996;48.746;9.174;2023-04-21T02:18:50;26.43;;;15.97;;
9914;SDS011;4996;48.746;9.174;2023-04-21T02:21:20;19.10;;;13.80;;
9914;SDS011;4996;48.746;9.174;2023-04-21T02:23:46;25.03;;;15.37;;
9914;SDS011;4996;48.746;9.174;2023-04-21T02:26:11;21.43;;;13.97;;
9914;SDS011;4996;48.746;9.174;2023-04-21T02:28:37;27.40;;;13.70;;
9914;SDS011;4996;48.746;9.174;2023-04-21T02:31:02;20.70;;;13.57;;
9914;SDS011;4996;48.746;9.174;2023-04-21T02:33:28;19.90;;;13.50;;
9914;SDS011;4996;48.746;9.174;2023-04-21T02:35:54;26.23;;;14.27;;
9914;SDS011;4996;48.746;9.174;2023-04-21T02:38:19;21.63;;;12.83;;
9914;SDS011;4996;48.746;9.174;2023-04-21T02:40:45;22.97;;;14.70;;
9914;SDS011;4996;48.746;9.174;2023-04-21T02:43:12;24.43;;;14.90;;
9914;SDS011;4996;48.746;9.174;2023-04-21T02:45:38;19.97;;;12.50;;
9914;SDS011;4996;48.746;9.174;2023-04-21T02:48:04;25.30;;;14.90;;
9914;SDS011;4996;48.746;9.174;2023-04-21T02:50:29;23.90;;;14.33;;
9914;SDS011;4996;48.746;9.174;2023-04-21T02:52:55;19.77;;;12.70;;
9914;SDS011;4996;48.746;9.174;2023-04-21T02:55:20;22.03;;;14.10;;
9914;SDS011;4996;48.746;9.174;2023-04-21T02:57:46;26.80;;;15.50;;
9914;SDS011;4996;48.746;9.174;2023-04-21T03:00:12;24.80;;;13.87;;
9914;SDS011;4996;48.746;9.174;2023-04-21T03:02:38;23.30;;;14.03;;
9914;SDS011;4996;48.746;9.174;2023-04-21T03:05:04;21.93;;;14.10;;
9914;SDS011;4996;48.746;9.174;2023-04-21T03:07:30;23.70;;;14.83;;
9914;SDS011;4996;48.746;9.174;2023-04-21T03:09:56;22.77;;;13.50;;
9914;SDS011;4996;48.746;9.174;2023-04-21T03:12:21;30.50;;;15.63;;
9914;SDS011;4996;48.746;9.174;2023-04-21T03:14:47;24.17;;;14.70;;
9914;SDS011;4996;48.746;9.174;2023-04-21T03:17:12;22.57;;;13.90;;
9914;SDS011;4996;48.746;9.174;2023-04-21T03:19:38;21.40;;;12.47;;
9914;SDS011;4996;48.746;9.174;2023-04-21T03:22:04;22.23;;;14.20;;
9914;SDS011;4996;48.746;9.174;2023-04-21T03:24:30;24.03;;;15.50;;
9914;SDS011;4996;48.746;9.174;2023-04-21T03:26:56;21.30;;;13.93;;
9914;SDS011;4996;48.746;9.174;2023-04-21T03:29:21;28.30;;;15.27;;
9914;SDS011;4996;48.746;9.174;2023-04-21T03:31:47;31.33;;;16.10;;
9914;SDS011;4996;48.746;9.174;2023-04-21T03:34:13;30.17;;;15.20;;
9914;SDS011;4996;48.746;9.174;2023-04-21T03:36:38;26.67;;;14.77;;
9914;SDS011;4996;48.746;9.174;2023-04-21T03:39:04;24.70;;;15.40;;
9914;SDS011;4996;48.746;9.174;2023-04-21T03:41:30;25.33;;;14.37;;
9914;SDS011;4996;48.746;9.174;2023-04-21T03:43:57;25.70;;;13.63;;
9914;SDS011;4996;48.746;9.174;2023-04-21T03:46:22;30.93;;;16.80;;
9914;SDS011;4996;48.746;9.174;2023-04-21T03:48:48;24.57;;;14.37;;
9914;SDS011;4996;48.746;9.174;2023-04-21T03:51:13;26.20;;;15.97;;
9914;SDS011;4996;48.746;9.174;2023-04-21T03:53:39;27.80;;;15.77;;
9914;SDS011;4996;48.746;9.174;2023-04-21T03:56:05;26.23;;;16.37;;
9914;SDS011;4996;48.746;9.174;2023-04-21T03:58:31;27.17;;;15.80;;
9914;SDS011;4996;48.746;9.174;2023-04-21T04:00:56;27.33;;;15.10;;
9914;SDS011;4996;48.746;9.174;2023-04-21T04:03:22;24.30;;;14.20;;
9914;SDS011;4996;48.746;9.174;2023-04-21T04:05:47;26.17;;;14.40;;
9914;SDS011;4996;48.746;9.174;2023-04-21T04:08:13;25.00;;;15.37;;
9914;SDS011;4996;48.746;9.174;2023-04-21T04:10:38;24.43;;;15.47;;
9914;SDS011;4996;48.746;9.174;2023-04-21T04:13:04;26.90;;;16.07;;
9914;SDS011;4996;48.746;9.174;2023-04-21T04:15:29;31.20;;;17.70;;
9914;SDS011;4996;48.746;9.174;2023-04-21T04:17:55;37.17;;;17.40;;
9914;SDS011;4996;48.746;9.174;2023-04-21T04:20:20;31.20;;;16.77;;
9914;SDS011;4996;48.746;9.174;2023-04-21T04:22:46;38.23;;;17.77;;
9914;SDS011;4996;48.746;9.174;2023-04-21T04:25:11;31.33;;;17.20;;
9914;SDS011;4996;48.746;9.174;2023-04-21T04:27:39;29.07;;;16.40;;
9914;SDS011;4996;48.746;9.174;2023-04-21T04:30:05;26.20;;;16.20;;
9914;SDS011;4996;48.746;9.174;2023-04-21T04:32:31;31.73;;;17.30;;
9914;SDS011;4996;48.746;9.174;2023-04-21T04:34:58;36.80;;;18.30;;
9914;SDS011;4996;48.746;9.174;2023-04-21T04:37:23;29.50;;;16.63;;
9914;SDS011;4996;48.746;9.174;2023-04-21T04:39:51;36.93;;;17.57;;
9914;SDS011;4996;48.746;9.174;2023-04-21T04:42:17;33.10;;;17.60;;
9914;SDS011;4996;48.746;9.174;2023-04-21T04:44:44;28.50;;;16.57;;
9914;SDS011;4996;48.746;9.174;2023-04-21T04:47:09;36.27;;;18.73;;
9914;SDS011;4996;48.746;9.174;2023-04-21T04:49:36;30.50;;;16.70;;
9914;SDS011;4996;48.746;9.174;2023-04-21T04:52:02;34.70;;;17.07;;
9914;SDS011;4996;48.746;9.174;2023-04-21T04:54:27;34.17;;;17.80;;
9914;SDS011;4996;48.746;9.174;2023-04-21T04:56:53;34.00;;;17.53;;
9914;SDS011;4996;48.746;9.174;2023-04-21T04:59:19;32.80;;;17.60;;
9914;SDS011;4996;48.746;9.174;2023-04-21T05:01:45;33.47;;;17.70;;
9914;SDS011;4996;48.746;9.174;2023-04-21T05:04:10;31.00;;;17.47;;
9914;SDS011;4996;48.746;9.174;2023-04-21T05:06:40;41.83;;;19.47;;
9914;SDS011;4996;48.746;9.174;2023-04-21T05:09:05;37.00;;;19.83;;
9914;SDS011;4996;48.746;9.174;2023-04-21T05:11:31;35.67;;;18.83;;
9914;SDS011;4996;48.746;9.174;2023-04-21T05:13:56;31.83;;;18.40;;
9914;SDS011;4996;48.746;9.174;2023-04-21T05:16:22;32.63;;;17.17;;
9914;SDS011;4996;48.746;9.174;2023-04-21T05:18:48;35.43;;;19.20;;
9914;SDS011;4996;48.746;9.174;2023-04-21T05:21:24;30.40;;;16.93;;
9914;SDS011;4996;48.746;9.174;2023-04-21T05:23:56;31.60;;;17.10;;
9914;SDS011;4996;48.746;9.174;2023-04-21T05:26:24;36.70;;;17.87;;
9914;SDS011;4996;48.746;9.174;2023-04-21T05:28:51;32.27;;;18.17;;
9914;SDS011;4996;48.746;9.174;2023-04-21T05:31:20;31.80;;;16.80;;
9914;SDS011;4996;48.746;9.174;2023-04-21T05:33:47;29.77;;;18.40;;
9914;SDS011;4996;48.746;9.174;2023-04-21T05:36:12;31.50;;;17.80;;
9914;SDS011;4996;48.746;9.174;2023-04-21T05:38:38;36.90;;;18.43;;
9914;SDS011;4996;48.746;9.174;2023-04-21T05:41:03;36.30;;;18.70;;
9914;SDS011;4996;48.746;9.174;2023-04-21T05:43:30;30.37;;;15.80;;
9914;SDS011;4996;48.746;9.174;2023-04-21T05:46:01;35.57;;;17.20;;
9914;SDS011;4996;48.746;9.174;2023-04-21T05:48:28;32.67;;;17.60;;
9914;SDS011;4996;48.746;9.174;2023-04-21T05:50:54;32.50;;;18.30;;
9914;SDS011;4996;48.746;9.174;2023-04-21T05:53:19;31.80;;;17.43;;
9914;SDS011;4996;48.746;9.174;2023-04-21T05:55:47;31.10;;;16.80;;
9914;SDS011;4996;48.746;9.174;2023-04-21T05:58:13;27.37;;;15.90;;
9914;SDS011;4996;48.746;9.174;2023-04-21T06:00:38;27.60;;;16.40;;
9914;SDS011;4996;48.746;9.174;2023-04-21T06:03:04;33.47;;;18.17;;
9914;SDS011;4996;48.746;9.174;2023-04-21T06:05:30;33.20;;;17.97;;
9914;SDS011;4996;48.746;9.174;2023-04-21T06:07:56;31.67;;;16.43;;
9914;SDS011;4996;48.746;9.174;2023-04-21T06:10:21;34.53;;;17.90;;
9914;SDS011;4996;48.746;9.174;2023-04-21T06:12:47;34.30;;;16.70;;
9914;SDS011;4996;48.746;9.174;2023-04-21T06:15:13;33.47;;;17.27;;
9914;SDS011;4996;48.746;9.174;2023-04-21T06:17:38;34.07;;;18.10;;
9914;SDS011;4996;48.746;9.174;2023-04-21T06:20:04;34.73;;;18.50;;
9914;SDS011;4996;48.746;9.174;2023-04-21T06:22:30;29.63;;;15.90;;
9914;SDS011;4996;48.746;9.174;2023-04-21T06:24:56;34.63;;;17.60;;
9914;SDS011;4996;48.746;9.174;2023-04-21T06:27:22;30.97;;;17.63;;
9914;SDS011;4996;48.746;9.174;2023-04-21T06:29:47;31.20;;;17.00;;
9914;SDS011;4996;48.746;9.174;2023-04-21T06:32:19;27.60;;;16.47;;
9914;SDS011;4996;48.746;9.174;2023-04-21T06:34:45;29.20;;;16.93;;
9914;SDS011;4996;48.746;9.174;2023-04-21T06:37:10;29.83;;;15.87;;
9914;SDS011;4996;48.746;9.174;2023-04-21T06:39:36;32.33;;;16.50;;
9914;SDS011;4996;48.746;9.174;2023-04-21T06:42:01;33.80;;;17.50;;
9914;SDS011;4996;48.746;9.174;2023-04-21T06:44:27;24.90;;;15.00;;
9914;SDS011;4996;48.746;9.174;2023-04-21T06:46:53;28.73;;;15.67;;
9914;SDS011;4996;48.746;9.174;2023-04-21T06:49:18;25.00;;;15.10;;
9914;SDS011;4996;48.746;9.174;2023-04-21T06:51:44;29.80;;;15.90;;
9914;SDS011;4996;48.746;9.174;2023-04-21T06:54:10;22.90;;;14.70;;
9914;SDS011;4996;48.746;9.174;2023-04-21T06:56:35;25.20;;;16.20;;
9914;SDS011;4996;48.746;9.174;2023-04-21T06:59:01;27.43;;;14.97;;
9914;SDS011;4996;48.746;9.174;2023-04-21T07:01:27;24.70;;;15.10;;
9914;SDS011;4996;48.746;9.174;2023-04-21T07:03:52;26.57;;;15.60;;
9914;SDS011;4996;48.746;9.174;2023-04-21T07:06:18;25.77;;;16.00;;
9914;SDS011;4996;48.746;9.174;2023-04-21T07:08:44;25.10;;;14.53;;
9914;SDS011;4996;48.746;9.174;2023-04-21T07:11:09;22.33;;;14.80;;
9914;SDS011;4996;48.746;9.174;2023-04-21T07:13:35;23.73;;;13.53;;
9914;SDS011;4996;48.746;9.174;2023-04-21T07:16:00;21.70;;;12.83;;
9914;SDS011;4996;48.746;9.174;2023-04-21T07:18:26;19.87;;;12.90;;
9914;SDS011;4996;48.746;9.174;2023-04-21T07:20:51;18.60;;;12.60;;
9914;SDS011;4996;48.746;9.174;2023-04-21T07:23:17;18.10;;;11.83;;
9914;SDS011;4996;48.746;9.174;2023-04-21T07:25:43;17.03;;;10.70;;
9914;SDS011;4996;48.746;9.174;2023-04-21T07:28:08;14.50;;;9.37;;
9914;SDS011;4996;48.746;9.174;2023-04-21T07:30:35;14.50;;;9.83;;
9914;SDS011;4996;48.746;9.174;2023-04-21T07:33:00;15.93;;;9.47;;
9914;SDS011;4996;48.746;9.174;2023-04-21T07:35:26;12.20;;;8.87;;
9914;SDS011;4996;48.746;9.174;2023-04-21T07:37:52;12.40;;;9.03;;
9914;SDS011;4996;48.746;9.174;2023-04-21T07:40:17;14.70;;;8.93;;
9914;SDS011;4996;48.746;9.174;2023-04-21T07:42:43;14.23;;;9.53;;
9914;SDS011;4996;48.746;9.174;2023-04-21T07:45:08;14.60;;;9.80;;
9914;SDS011;4996;48.746;9.174;2023-04-21T07:47:34;14.63;;;9.30;;
9914;SDS011;4996;48.746;9.174;2023-04-21T07:50:00;11.10;;;8.70;;
9914;SDS011;4996;48.746;9.174;2023-04-21T07:52:25;15.30;;;10.00;;
9914;SDS011;4996;48.746;9.174;2023-04-21T07:54:51;13.40;;;9.20;;
9914;SDS011;4996;48.746;9.174;2023-04-21T07:57:16;13.13;;;8.77;;
9914;SDS011;4996;48.746;9.174;2023-04-21T07:59:42;15.70;;;11.43;;
9914;SDS011;4996;48.746;9.174;2023-04-21T08:02:08;18.77;;;10.97;;
9914;SDS011;4996;48.746;9.174;2023-04-21T08:04:33;15.50;;;10.83;;
9914;SDS011;4996;48.746;9.174;2023-04-21T08:06:59;11.17;;;8.87;;
9914;SDS011;4996;48.746;9.174;2023-04-21T08:09:25;13.27;;;8.70;;
9914;SDS011;4996;48.746;9.174;2023-04-21T08:11:51;12.23;;;8.97;;
9914;SDS011;4996;48.746;9.174;2023-04-21T08:14:16;54.63;;;25.73;;
9914;SDS011;4996;48.746;9.174;2023-04-21T08:16:42;13.43;;;9.00;;
9914;SDS011;4996;48.746;9.174;2023-04-21T08:19:08;11.90;;;8.10;;
9914;SDS011;4996;48.746;9.174;2023-04-21T08:21:34;12.43;;;9.17;;
9914;SDS011;4996;48.746;9.174;2023-04-21T08:24:00;15.83;;;8.53;;
9914;SDS011;4996;48.746;9.174;2023-04-21T08:26:26;13.87;;;8.80;;
9914;SDS011;4996;48.746;9.174;2023-04-21T08:28:54;13.17;;;7.63;;
9914;SDS011;4996;48.746;9.174;2023-04-21T08:31:20;8.20;;;6.90;;
9914;SDS011;4996;48.746;9.174;2023-04-21T08:33:46;11.40;;;8.10;;
9914;SDS011;4996;48.746;9.174;2023-04-21T08:36:12;8.47;;;6.80;;
9914;SDS011;4996;48.746;9.174;2023-04-21T08:38:37;10.67;;;6.60;;
9914;SDS011;4996;48.746;9.174;2023-04-21T08:41:03;9.00;;;6.50;;
9914;SDS011;4996;48.746;9.174;2023-04-21T08:43:29;7.80;;;6.03;;
9914;SDS011;4996;48.746;9.174;2023-04-21T08:45:55;8.63;;;6.67;;
9914;SDS011;4996;48.746;9.174;2023-04-21T08:48:21;8.97;;;6.47;;
9914;SDS011;4996;48.746;9.174;2023-04-21T08:50:49;6.67;;;5.90;;
9914;SDS011;4996;48.746;9.174;2023-04-21T08:53:16;9.60;;;6.30;;
9914;SDS011;4996;48.746;9.174;2023-04-21T08:55:42;9.63;;;7.03;;
9914;SDS011;4996;48.746;9.174;2023-04-21T08:58:09;11.40;;;7.60;;
9914;SDS011;4996;48.746;9.174;2023-04-21T09:00:34;11.23;;;7.43;;
9914;SDS011;4996;48.746;9.174;2023-04-21T09:03:00;10.50;;;7.90;;
9914;SDS011;4996;48.746;9.174;2023-04-21T09:05:28;9.07;;;6.43;;
9914;SDS011;4996;48.746;9.174;2023-04-21T09:08:11;7.80;;;6.40;;
9914;SDS011;4996;48.746;9.174;2023-04-21T09:13:09;8.90;;;6.10;;
9914;SDS011;4996;48.746;9.174;2023-04-21T09:15:39;10.00;;;6.53;;
9914;SDS011;4996;48.746;9.174;2023-04-21T09:18:18;8.10;;;6.53;;
9914;SDS011;4996;48.746;9.174;2023-04-21T09:20:45;7.27;;;6.13;;
9914;SDS011;4996;48.746;9.174;2023-04-21T09:23:12;12.23;;;5.20;;
9914;SDS011;4996;48.746;9.174;2023-04-21T09:25:38;10.80;;;5.97;;
9914;SDS011;4996;48.746;9.174;2023-04-21T09:28:09;8.60;;;5.90;;
9914;SDS011;4996;48.746;9.174;2023-04-21T09:30:36;12.43;;;5.20;;
9914;SDS011;4996;48.746;9.174;2023-04-21T09:33:03;7.33;;;5.40;;
9914;SDS011;4996;48.746;9.174;2023-04-21T09:35:36;7.50;;;5.77;;
9914;SDS011;4996;48.746;9.174;2023-04-21T09:38:09;8.97;;;5.60;;
9914;SDS011;4996;48.746;9.174;2023-04-21T09:40:36;10.80;;;5.90;;
9914;SDS011;4996;48.746;9.174;2023-04-21T09:43:01;6.27;;;5.23;;
9914;SDS011;4996;48.746;9.174;2023-04-21T09:45:27;6.10;;;4.10;;
9914;SDS011;4996;48.746;9.174;2023-04-21T09:47:54;4.47;;;3.60;;
9914;SDS011;4996;48.746;9.174;2023-04-21T09:50:21;11.97;;;6.97;;
9914;SDS011;4996;48.746;9.174;2023-04-21T09:52:49;41.70;;;16.83;;
9914;SDS011;4996;48.746;9.174;2023-04-21T09:55:17;19.03;;;10.73;;
9914;SDS011;4996;48.746;9.174;2023-04-21T09:57:46;6.80;;;5.10;;
9914;SDS011;4996;48.746;9.174;2023-04-21T10:00:14;8.37;;;5.37;;
9914;SDS011;4996;48.746;9.174;2023-04-21T10:05:09;8.97;;;6.53;;
9914;SDS011;4996;48.746;9.174;2023-04-21T10:07:36;7.40;;;4.87;;
9914;SDS011;4996;48.746;9.174;2023-04-21T10:10:01;7.67;;;5.57;;
9914;SDS011;4996;48.746;9.174;2023-04-21T10:12:27;8.67;;;6.13;;
9914;SDS011;4996;48.746;9.174;2023-04-21T10:14:54;8.17;;;6.40;;
9914;SDS011;4996;48.746;9.174;2023-04-21T10:17:21;8.67;;;6.33;;
9914;SDS011;4996;48.746;9.174;2023-04-21T10:19:49;8.93;;;6.37;;
9914;SDS011;4996;48.746;9.174;2023-04-21T10:22:26;9.27;;;6.83;;
9914;SDS011;4996;48.746;9.174;2023-04-21T10:24:57;11.47;;;7.30;;
9914;SDS011;4996;48.746;9.174;2023-04-21T10:27:30;7.93;;;6.10;;
9914;SDS011;4996;48.746;9.174;2023-04-21T10:30:18;8.40;;;6.63;;
9914;SDS011;4996;48.746;9.174;2023-04-21T10:32:44;7.53;;;6.20;;
9914;SDS011;4996;48.746;9.174;2023-04-21T10:35:13;9.37;;;6.23;;
9914;SDS011;4996;48.746;9.174;2023-04-21T10:37:42;7.67;;;6.57;;
9914;SDS011;4996;48.746;9.174;2023-04-21T10:42:55;10.47;;;6.67;;
9914;SDS011;4996;48.746;9.174;2023-04-21T10:45:21;8.13;;;7.27;;
9914;SDS011;4996;48.746;9.174;2023-04-21T10:47:49;12.30;;;8.40;;
9914;SDS011;4996;48.746;9.174;2023-04-21T10:52:53;11.60;;;6.20;;
9914;SDS011;4996;48.746;9.174;2023-04-21T10:55:35;9.07;;;7.13;;
9914;SDS011;4996;48.746;9.174;2023-04-21T10:58:02;11.17;;;6.80;;
9914;SDS011;4996;48.746;9.174;2023-04-21T11:00:29;10.10;;;7.07;;
9914;SDS011;4996;48.746;9.174;2023-04-21T11:02:56;12.70;;;8.20;;
9914;SDS011;4996;48.746;9.174;2023-04-21T11:05:30;11.13;;;8.13;;
9914;SDS011;4996;48.746;9.174;2023-04-21T11:13:15;9.70;;;7.70;;
9914;SDS011;4996;48.746;9.174;2023-04-21T11:15:53;10.10;;;7.07;;
9914;SDS011;4996;48.746;9.174;2023-04-21T11:18:20;7.80;;;6.67;;
9914;SDS011;4996;48.746;9.174;2023-04-21T11:20:45;10.20;;;7.03;;
9914;SDS011;4996;48.746;9.174;2023-04-21T11:23:16;8.23;;;6.37;;
9914;SDS011;4996;48.746;9.174;2023-04-21T11:25:44;8.77;;;6.50;;
9914;SDS011;4996;48.746;9.174;2023-04-21T11:28:10;7.53;;;6.40;;
9914;SDS011;4996;48.746;9.174;2023-04-21T11:30:35;9.60;;;7.23;;
9914;SDS011;4996;48.746;9.174;2023-04-21T11:33:01;8.23;;;6.37;;
9914;SDS011;4996;48.746;9.174;2023-04-21T11:35:27;7.20;;;5.90;;
9914;SDS011;4996;48.746;9.174;2023-04-21T11:37:53;6.30;;;5.70;;
9914;SDS011;4996;48.746;9.174;2023-04-21T11:40:19;7.20;;;5.47;;
9914;SDS011;4996;48.746;9.174;2023-04-21T11:42:45;7.87;;;6.27;;
9914;SDS011;4996;48.746;9.174;2023-04-21T11:45:17;9.17;;;6.50;;
9914;SDS011;4996;48.746;9.174;2023-04-21T11:47:43;6.27;;;5.63;;
9914;SDS011;4996;48.746;9.174;2023-04-21T11:50:09;6.03;;;5.20;;
9914;SDS011;4996;48.746;9.174;2023-04-21T11:52:35;7.70;;;4.77;;
9914;SDS011;4996;48.746;9.174;2023-04-21T11:55:02;5.63;;;5.03;;
9914;SDS011;4996;48.746;9.174;2023-04-21T11:57:43;5.80;;;5.20;;
9914;SDS011;4996;48.746;9.174;2023-04-21T12:00:10;4.80;;;4.40;;
9914;SDS011;4996;48.746;9.174;2023-04-21T12:02:39;5.37;;;4.87;;
9914;SDS011;4996;48.746;9.174;2023-04-21T12:05:07;6.63;;;5.30;;
9914;SDS011;4996;48.746;9.174;2023-04-21T12:07:38;8.40;;;6.37;;
9914;SDS011;4996;48.746;9.174;2023-04-21T12:10:14;6.47;;;5.77;;
9914;SDS011;4996;48.746;9.174;2023-04-21T12:12:43;4.77;;;4.30;;
9914;SDS011;4996;48.746;9.174;2023-04-21T12:15:10;7.93;;;6.70;;
9914;SDS011;4996;48.746;9.174;2023-04-21T12:18:10;5.93;;;5.33;;
9914;SDS011;4996;48.746;9.174;2023-04-21T12:20:36;7.43;;;6.73;;
9914;SDS011;4996;48.746;9.174;2023-04-21T12:23:01;6.23;;;5.50;;
9914;SDS011;4996;48.746;9.174;2023-04-21T12:25:27;6.30;;;5.70;;
9914;SDS011;4996;48.746;9.174;2023-04-21T12:27:57;6.67;;;6.00;;
9914;SDS011;4996;48.746;9.174;2023-04-21T12:30:39;8.60;;;5.93;;
9914;SDS011;4996;48.746;9.174;2023-04-21T12:33:05;8.33;;;6.30;;
9914;SDS011;4996;48.746;9.174;2023-04-21T12:35:30;6.03;;;5.50;;
9914;SDS011;4996;48.746;9.174;2023-04-21T12:37:57;6.27;;;4.73;;
9914;SDS011;4996;48.746;9.174;2023-04-21T12:40:22;4.93;;;4.43;;
9914;SDS011;4996;48.746;9.174;2023-04-21T12:42:48;5.47;;;4.97;;
9914;SDS011;4996;48.746;9.174;2023-04-21T12:45:13;5.67;;;5.07;;
9914;SDS011;4996;48.746;9.174;2023-04-21T12:47:39;7.30;;;6.60;;
9914;SDS011;4996;48.746;9.174;2023-04-21T12:50:06;6.53;;;5.57;;
9914;SDS011;4996;48.746;9.174;2023-04-21T12:52:32;5.10;;;4.60;;
9914;SDS011;4996;48.746;9.174;2023-04-21T12:54:57;5.23;;;4.73;;
9914;SDS011;4996;48.746;9.174;2023-04-21T12:57:23;5.93;;;5.43;;
9914;SDS011;4996;48.746;9.174;2023-04-21T12:59:48;5.80;;;4.60;;
9914;SDS011;4996;48.746;9.174;2023-04-21T13:02:14;6.20;;;4.57;;
9914;SDS011;4996;48.746;9.174;2023-04-21T13:04:40;3.93;;;3.63;;
9914;SDS011;4996;48.746;9.174;2023-04-21T13:07:06;4.90;;;4.40;;
9914;SDS011;4996;48.746;9.174;2023-04-21T13:09:32;6.33;;;4.53;;
9914;SDS011;4996;48.746;9.174;2023-04-21T13:11:57;7.53;;;4.60;;
9914;SDS011;4996;48.746;9.174;2023-04-21T13:14:23;5.13;;;4.07;;
9914;SDS011;4996;48.746;9.174;2023-04-21T13:16:49;4.40;;;4.00;;
9914;SDS011;4996;48.746;9.174;2023-04-21T13:19:14;4.53;;;4.13;;
9914;SDS011;4996;48.746;9.174;2023-04-21T13:21:40;5.80;;;4.53;;
9914;SDS011;4996;48.746;9.174;2023-04-21T13:24:05;5.13;;;3.93;;
9914;SDS011;4996;48.746;9.174;2023-04-21T13:26:31;4.17;;;3.87;;
9914;SDS011;4996;48.746;9.174;2023-04-21T13:28:59;4.70;;;4.10;;
9914;SDS011;4996;48.746;9.174;2023-04-21T13:31:25;6.17;;;4.83;;
9914;SDS011;4996;48.746;9.174;2023-04-21T13:33:51;5.10;;;4.50;;
9914;SDS011;4996;48.746;9.174;2023-04-21T13:36:16;6.03;;;4.30;;
9914;SDS011;4996;48.746;9.174;2023-04-21T13:38:42;4.23;;;3.83;;
9914;SDS011;4996;48.746;9.174;2023-04-21T13:41:08;5.70;;;3.90;;
9914;SDS011;4996;48.746;9.174;2023-04-21T13:43:33;6.40;;;4.47;;
9914;SDS011;4996;48.746;9.174;2023-04-21T13:45:59;4.70;;;4.23;;
9914;SDS011;4996;48.746;9.174;2023-04-21T13:48:25;5.00;;;3.40;;
9914;SDS011;4996;48.746;9.174;2023-04-21T13:50:52;3.80;;;3.40;;
9914;SDS011;4996;48.746;9.174;2023-04-21T13:53:18;3.30;;;3.00;;
9914;SDS011;4996;48.746;9.174;2023-04-21T13:55:43;2.80;;;2.50;;
9914;SDS011;4996;48.746;9.174;2023-04-21T13:58:09;2.43;;;2.23;;
9914;SDS011;4996;48.746;9.174;2023-04-21T14:00:35;3.50;;;2.50;;
9914;SDS011;4996;48.746;9.174;2023-04-21T14:03:01;3.27;;;2.50;;
9914;SDS011;4996;48.746;9.174;2023-04-21T14:05:27;2.57;;;1.80;;
9914;SDS011;4996;48.746;9.174;2023-04-21T14:07:54;2.43;;;2.23;;
9914;SDS011;4996;48.746;9.174;2023-04-21T14:10:19;3.23;;;2.00;;
9914;SDS011;4996;48.746;9.174;2023-04-21T14:12:45;2.40;;;1.90;;
9914;SDS011;4996;48.746;9.174;2023-04-21T14:15:12;2.87;;;2.30;;
9914;SDS011;4996;48.746;9.174;2023-04-21T14:17:38;3.17;;;2.83;;
9914;SDS011;4996;48.746;9.174;2023-04-21T14:20:04;2.57;;;2.27;;
9914;SDS011;4996;48.746;9.174;2023-04-21T14:22:31;3.57;;;2.00;;
9914;SDS011;4996;48.746;9.174;2023-04-21T14:24:57;1.97;;;1.83;;
9914;SDS011;4996;48.746;9.174;2023-04-21T14:27:22;2.50;;;1.77;;
9914;SDS011;4996;48.746;9.174;2023-04-21T14:29:48;2.77;;;2.00;;
9914;SDS011;4996;48.746;9.174;2023-04-21T14:32:13;2.60;;;2.30;;
9914;SDS011;4996;48.746;9.174;2023-04-21T14:34:39;4.13;;;2.00;;
9914;SDS011;4996;48.746;9.174;2023-04-21T14:37:04;3.00;;;2.43;;
9914;SDS011;4996;48.746;9.174;2023-04-21T14:39:31;2.63;;;2.37;;
9914;SDS011;4996;48.746;9.174;2023-04-21T14:41:57;4.50;;;2.23;;
9914;SDS011;4996;48.746;9.174;2023-04-21T14:44:22;5.27;;;1.60;;
9914;SDS011;4996;48.746;9.174;2023-04-21T14:46:48;2.20;;;2.00;;
9914;SDS011;4996;48.746;9.174;2023-04-21T14:49:14;3.13;;;2.27;;
9914;SDS011;4996;48.746;9.174;2023-04-21T14:51:39;2.50;;;2.30;;
9914;SDS011;4996;48.746;9.174;2023-04-21T14:54:05;3.60;;;2.73;;
9914;SDS011;4996;48.746;9.174;2023-04-21T14:56:31;2.60;;;2.40;;
9914;SDS011;4996;48.746;9.174;2023-04-21T14:58:57;3.10;;;2.10;;
9914;SDS011;4996;48.746;9.174;2023-04-21T15:01:23;3.83;;;2.77;;
9914;SDS011;4996;48.746;9.174;2023-04-21T15:03:48;4.67;;;2.43;;
9914;SDS011;4996;48.746;9.174;2023-04-21T15:06:14;2.53;;;2.10;;
9914;SDS011;4996;48.746;9.174;2023-04-21T15:08:40;4.03;;;2.07;;
9914;SDS011;4996;48.746;9.174;2023-04-21T15:11:05;2.43;;;2.20;;
9914;SDS011;4996;48.746;9.174;2023-04-21T15:13:31;3.77;;;3.17;;